Time;durP1;ratioP1;P1;durP2;ratioP2;P2;SDS_P1;SDS_P2;PMS_P1;PMS_P2;Temp;Humidity;BMP_temperature;BMP_pressure;BME280_temperature;BME280_humidity;BME280_pressure;Samples;Min_cycle;Max_cycle;Signal;HPM_P1;HPM_P2
2023/01/28 00:01:17;;;;;;;1.43;0.60;;;;;;;5.57;100.00;94412.53;5092971;28;20431;-58
2023/01/28 00:03:49;;;;;;;0.40;0.30;;;;;;;5.67;100.00;94430.94;5092926;28;20446;-58
2023/01/28 00:06:18;;;;;;;0.60;0.60;;;;;;;5.27;100.00;94430.84;5092648;28;20429;-58
2023/01/28 00:08:47;;;;;;;0.90;0.90;;;;;;;5.49;100.00;94441.97;5092324;28;20424;-58
2023/01/28 00:11:15;;;;;;;0.30;0.20;;;;;;;5.19;100.00;94440.00;5091518;28;20859;-58
2023/01/28 00:13:45;;;;;;;0.30;0.30;;;;;;;5.30;100.00;94446.88;5092386;28;20873;-58
2023/01/28 00:16:13;;;;;;;0.30;0.20;;;;;;;5.16;100.00;94442.38;5092401;28;20420;-58
2023/01/28 00:18:41;;;;;;;4.20;0.60;;;;;;;5.08;100.00;94449.66;5092189;28;20463;-58
2023/01/28 00:21:12;;;;;;;1.20;1.03;;;;;;;5.04;100.00;94453.88;5092501;28;20428;-58
2023/01/28 00:23:47;;;;;;;0.40;0.33;;;;;;;4.68;100.00;94454.72;5091732;28;20472;-58
2023/01/28 00:26:15;;;;;;;0.83;0.50;;;;;;;4.52;100.00;94454.88;5092137;28;20425;-58
2023/01/28 00:28:45;;;;;;;0.30;0.20;;;;;;;4.61;100.00;94461.22;5092398;28;20511;-58
2023/01/28 00:31:16;;;;;;;0.40;0.37;;;;;;;4.42;100.00;94466.09;5091203;28;20514;-58
2023/01/28 00:33:45;;;;;;;0.50;0.33;;;;;;;4.30;100.00;94452.38;5091040;28;20483;-58
2023/01/28 00:36:14;;;;;;;0.30;0.20;;;;;;;4.27;100.00;94468.59;5090953;28;21136;-58
2023/01/28 00:38:43;;;;;;;0.40;0.40;;;;;;;4.44;100.00;94462.19;5092315;28;20792;-59
2023/01/28 00:41:15;;;;;;;0.83;0.83;;;;;;;4.30;100.00;94481.22;5092270;28;20535;-58
2023/01/28 00:43:45;;;;;;;1.60;1.50;;;;;;;4.24;100.00;94463.84;5092203;28;20780;-58
2023/01/28 00:46:14;;;;;;;0.60;0.50;;;;;;;4.14;100.00;94479.50;5091767;28;20434;-58
2023/01/28 00:48:43;;;;;;;0.77;0.70;;;;;;;4.15;100.00;94479.25;5091951;28;20783;-58
2023/01/28 00:51:14;;;;;;;1.70;1.10;;;;;;;4.09;100.00;94476.84;5091278;28;20462;-58
2023/01/28 00:53:42;;;;;;;0.37;0.30;;;;;;;4.16;100.00;94485.28;5091801;28;20504;-58
2023/01/28 00:56:14;;;;;;;0.40;0.37;;;;;;;4.18;100.00;94464.84;5091875;28;20440;-58
2023/01/28 00:58:42;;;;;;;0.40;0.30;;;;;;;4.32;100.00;94487.78;5091228;28;20494;-59
2023/01/28 01:01:14;;;;;;;0.43;0.43;;;;;;;4.41;100.00;94488.91;5091637;28;20492;-58
2023/01/28 01:03:42;;;;;;;1.60;1.50;;;;;;;4.27;100.00;94490.38;5091591;28;20748;-58
2023/01/28 01:06:12;;;;;;;0.30;0.20;;;;;;;4.52;100.00;94494.22;5091555;28;20929;-58
2023/01/28 01:08:41;;;;;;;1.07;1.07;;;;;;;4.48;100.00;94457.19;5091346;28;20424;-58
2023/01/28 01:11:11;;;;;;;2.37;0.57;;;;;;;4.48;100.00;94480.81;5091635;28;20428;-58
2023/01/28 01:13:40;;;;;;;2.50;1.13;;;;;;;4.41;100.00;94467.13;5091666;28;20468;-58
2023/01/28 01:16:11;;;;;;;1.20;1.20;;;;;;;4.32;100.00;94430.09;5091628;28;20775;-58
2023/01/28 01:18:41;;;;;;;0.30;0.20;;;;;;;4.35;100.00;94481.25;5091747;28;20435;-58
2023/01/28 01:21:11;;;;;;;5.70;1.07;;;;;;;4.38;100.00;94491.22;5091542;28;20430;-58
2023/01/28 01:23:40;;;;;;;0.60;0.60;;;;;;;4.12;100.00;94492.06;5094569;28;20452;-58
2023/01/28 01:26:08;;;;;;;0.50;0.40;;;;;;;4.19;100.00;94495.28;5094560;28;20428;-58
2023/01/28 01:28:38;;;;;;;0.53;0.53;;;;;;;4.01;100.00;94496.44;5094944;28;20462;-58
2023/01/28 01:31:08;;;;;;;0.30;0.20;;;;;;;3.84;100.00;94496.50;5095952;28;20456;-58
2023/01/28 01:33:38;;;;;;;0.57;0.57;;;;;;;3.46;100.00;94406.81;5095330;28;20529;-59
2023/01/28 01:36:10;;;;;;;0.37;0.33;;;;;;;3.96;100.00;94499.00;5095248;28;20507;-59
2023/01/28 01:38:39;;;;;;;1.20;1.10;;;;;;;4.06;100.00;94495.69;5095147;28;20534;-57
2023/01/28 01:41:08;;;;;;;0.47;0.40;;;;;;;3.96;100.00;94495.59;5095343;28;20986;-58
2023/01/28 01:43:51;;;;;;;0.40;0.40;;;;;;;3.89;100.00;94500.25;5095226;28;20443;-57
2023/01/28 01:46:23;;;;;;;1.90;0.43;;;;;;;4.29;100.00;94505.84;5095320;28;20499;-58
2023/01/28 01:48:55;;;;;;;0.80;0.60;;;;;;;4.19;100.00;94503.94;5095470;28;20430;-58
2023/01/28 01:51:30;;;;;;;0.93;0.30;;;;;;;4.31;100.00;94498.53;5095153;28;20521;-58
2023/01/28 01:54:00;;;;;;;0.47;0.47;;;;;;;4.21;100.00;94501.06;5095065;28;20541;-58
2023/01/28 01:56:35;;;;;;;0.73;0.40;;;;;;;4.19;100.00;94500.53;5095018;28;20497;-58
2023/01/28 01:59:05;;;;;;;0.40;0.40;;;;;;;3.93;100.00;94509.97;5094611;28;21017;-58
2023/01/28 02:01:33;;;;;;;0.40;0.40;;;;;;;4.17;100.00;94499.97;5095125;28;20424;-58
2023/01/28 02:04:07;;;;;;;0.93;0.83;;;;;;;4.25;100.00;94518.66;5095309;28;20432;-58
2023/01/28 02:06:38;;;;;;;0.30;0.20;;;;;;;4.65;100.00;94522.66;5095272;28;20498;-58
2023/01/28 02:09:21;;;;;;;0.70;0.50;;;;;;;4.33;100.00;94512.97;5094913;28;20428;-58
2023/01/28 02:11:51;;;;;;;1.90;0.40;;;;;;;4.39;100.00;94519.06;5095153;28;20432;-58
2023/01/28 02:14:21;;;;;;;1.40;1.40;;;;;;;4.47;100.00;94521.22;5094743;28;20475;-59
2023/01/28 02:16:58;;;;;;;0.30;0.20;;;;;;;4.79;100.00;94521.19;5094871;28;20899;-58
2023/01/28 02:19:32;;;;;;;0.40;0.40;;;;;;;4.29;100.00;94516.34;5095025;28;20439;-58
2023/01/28 02:22:22;;;;;;;0.40;0.40;;;;;;;4.21;100.00;94519.41;5094723;28;20451;-58
2023/01/28 02:25:21;;;;;;;1.27;1.17;;;;;;;3.96;100.00;94517.34;5094668;28;20428;-58
2023/01/28 02:28:13;;;;;;;0.40;0.30;;;;;;;4.36;100.00;94516.91;5093843;28;20436;-58
2023/01/28 02:30:49;;;;;;;0.30;0.30;;;;;;;4.49;100.00;94521.75;5094857;28;20859;-58
2023/01/28 02:33:24;;;;;;;0.87;0.87;;;;;;;4.69;100.00;94524.53;5093520;28;20470;-58
2023/01/28 02:35:54;;;;;;;0.47;0.37;;;;;;;4.61;100.00;94522.38;5094335;28;20474;-58
2023/01/28 02:38:28;;;;;;;0.43;0.33;;;;;;;4.66;100.00;94514.53;5094542;28;20432;-58
2023/01/28 02:41:02;;;;;;;0.40;0.30;;;;;;;4.90;100.00;94522.84;5094215;28;20463;-58
2023/01/28 02:43:35;;;;;;;0.60;0.60;;;;;;;4.60;100.00;94504.25;5094763;28;20498;-58
2023/01/28 02:48:59;;;;;;;0.40;0.40;;;;;;;4.64;100.00;94516.63;5094523;28;20476;-59
2023/01/28 02:51:49;;;;;;;2.00;1.13;;;;;;;4.25;100.00;94512.66;5094126;28;20436;-58
2023/01/28 02:54:28;;;;;;;0.30;0.20;;;;;;;4.46;100.00;94520.44;5093615;28;20480;-58
2023/01/28 02:57:04;;;;;;;0.60;0.50;;;;;;;4.50;100.00;94515.47;5093542;28;20429;-58
2023/01/28 02:59:40;;;;;;;0.47;0.43;;;;;;;4.21;100.00;94516.78;5092365;28;20932;-58
2023/01/28 03:02:16;;;;;;;1.27;0.60;;;;;;;4.10;100.00;94520.38;5093713;28;20519;-58
2023/01/28 03:04:50;;;;;;;0.43;0.30;;;;;;;4.00;100.00;94515.03;5092690;28;20431;-58
2023/01/28 03:07:20;;;;;;;0.30;0.30;;;;;;;4.33;100.00;94527.91;5093142;28;20422;-58
2023/01/28 03:09:50;;;;;;;0.40;0.40;;;;;;;4.46;100.00;94517.00;5092182;28;20440;-58
2023/01/28 03:37:45;;;;;;;0.30;0.30;;;;;;;3.71;100.00;94523.13;5092722;28;20525;-59
2023/01/28 03:40:17;;;;;;;0.30;0.30;;;;;;;4.09;100.00;94518.78;5093424;28;20451;-60
2023/01/28 03:42:46;;;;;;;0.40;0.40;;;;;;;4.42;100.00;94521.19;5093071;28;20522;-59
2023/01/28 03:45:14;;;;;;;0.30;0.20;;;;;;;4.78;100.00;94528.25;5092513;28;20458;-59
2023/01/28 03:47:44;;;;;;;0.50;0.50;;;;;;;4.57;100.00;94516.06;5093149;28;20980;-59
2023/01/28 03:50:13;;;;;;;1.23;0.40;;;;;;;4.63;100.00;94519.50;5092691;28;20944;-59
2023/01/28 03:52:41;;;;;;;0.37;0.30;;;;;;;4.55;100.00;94519.97;5092862;28;20434;-59
2023/01/28 03:55:13;;;;;;;1.07;0.93;;;;;;;4.60;100.00;94525.25;5093162;28;20466;-59
2023/01/28 03:57:43;;;;;;;0.50;0.50;;;;;;;4.28;100.00;94505.06;5092767;28;20425;-59
2023/01/28 04:00:13;;;;;;;2.70;2.60;;;;;;;4.68;100.00;94522.94;5092606;28;20514;-58
2023/01/28 04:02:41;;;;;;;0.50;0.40;;;;;;;4.40;100.00;94531.13;5092312;28;20434;-59
2023/01/28 04:05:14;;;;;;;0.50;0.40;;;;;;;4.43;100.00;94533.25;5092720;28;20493;-58
2023/01/28 04:07:43;;;;;;;0.80;0.63;;;;;;;4.40;100.00;94531.13;5092681;28;20436;-59
2023/01/28 04:10:12;;;;;;;0.50;0.50;;;;;;;4.34;100.00;94537.38;5091898;28;21059;-59
2023/01/28 04:12:41;;;;;;;0.40;0.40;;;;;;;4.47;100.00;94543.00;5092530;28;20503;-59
2023/01/28 04:15:15;;;;;;;0.60;0.53;;;;;;;4.71;100.00;94540.81;5091593;28;20529;-59
2023/01/28 04:17:47;;;;;;;0.97;0.97;;;;;;;4.40;100.00;94537.16;5092510;28;20537;-59
2023/01/28 04:20:18;;;;;;;0.30;0.20;;;;;;;4.87;100.00;94537.28;5092689;28;20449;-59
2023/01/28 04:22:46;;;;;;;0.70;0.47;;;;;;;4.23;100.00;94491.91;5091801;28;20422;-59
2023/01/28 04:25:14;;;;;;;1.27;1.17;;;;;;;4.80;100.00;94530.66;5092656;28;20437;-59
2023/01/28 04:27:43;;;;;;;0.70;0.53;;;;;;;4.62;100.00;94536.28;5091926;28;20436;-59
2023/01/28 04:30:12;;;;;;;0.50;0.50;;;;;;;4.32;100.00;94547.31;5092162;28;20424;-59
2023/01/28 04:32:40;;;;;;;3.30;0.80;;;;;;;4.33;100.00;94547.06;5092191;28;20428;-59
2023/01/28 04:35:09;;;;;;;0.30;0.30;;;;;;;4.08;100.00;94522.44;5092009;28;20506;-59
2023/01/28 04:37:41;;;;;;;5.40;0.60;;;;;;;3.63;100.00;94449.41;5091804;28;20447;-59
2023/01/28 04:40:11;;;;;;;6.90;0.30;;;;;;;4.31;100.00;94554.41;5092137;28;20779;-60
2023/01/28 04:42:39;;;;;;;0.63;0.37;;;;;;;4.19;100.00;94552.97;5091769;28;20437;-60
2023/01/28 04:45:08;;;;;;;0.40;0.40;;;;;;;4.19;100.00;94561.63;5091990;28;20450;-59
2023/01/28 04:47:37;;;;;;;1.33;1.33;;;;;;;4.41;100.00;94561.56;5092358;28;20463;-59
2023/01/28 04:50:09;;;;;;;4.63;1.77;;;;;;;4.75;100.00;94570.00;5092277;28;20440;-59
2023/01/28 04:52:39;;;;;;;3.90;1.60;;;;;;;4.69;100.00;94565.72;5091470;28;20455;-59
2023/01/28 04:55:08;;;;;;;1.80;1.70;;;;;;;4.49;100.00;94546.16;5091534;28;20572;-59
2023/01/28 04:57:36;;;;;;;2.00;1.90;;;;;;;4.71;100.00;94584.63;5091047;28;20428;-60
2023/01/28 05:00:06;;;;;;;0.87;0.67;;;;;;;4.77;100.00;94571.31;5091901;28;20975;-59
2023/01/28 05:02:34;;;;;;;0.50;0.50;;;;;;;5.06;100.00;94584.91;5091752;28;20519;-59
2023/01/28 05:05:04;;;;;;;1.67;1.57;;;;;;;4.73;100.00;94590.44;5092029;28;20452;-59
2023/01/28 05:07:33;;;;;;;0.40;0.30;;;;;;;4.68;100.00;94590.41;5092122;28;20514;-59
2023/01/28 05:10:03;;;;;;;1.27;1.27;;;;;;;4.59;100.00;94587.44;5091835;28;20502;-59
2023/01/28 05:12:33;;;;;;;0.43;0.43;;;;;;;4.93;100.00;94591.38;5091896;28;20770;-59
2023/01/28 05:15:01;;;;;;;0.40;0.30;;;;;;;4.98;100.00;94586.16;5091958;28;20460;-59
2023/01/28 05:17:29;;;;;;;0.50;0.50;;;;;;;5.02;100.00;94589.88;5091517;28;20435;-59
2023/01/28 05:19:58;;;;;;;0.73;0.73;;;;;;;4.90;100.00;94598.97;5091579;28;20426;-59
2023/01/28 05:22:26;;;;;;;1.23;1.10;;;;;;;4.91;100.00;94600.53;5090741;28;20424;-59
2023/01/28 05:24:54;;;;;;;0.40;0.30;;;;;;;5.21;100.00;94597.38;5091515;28;20466;-60
2023/01/28 05:27:24;;;;;;;2.80;1.43;;;;;;;4.76;100.00;94561.84;5091592;28;20423;-59
2023/01/28 05:29:52;;;;;;;0.40;0.40;;;;;;;5.05;100.00;94599.09;5091544;28;20901;-60
2023/01/28 05:32:21;;;;;;;1.30;0.67;;;;;;;5.19;100.00;94607.34;5091765;28;20416;-59
2023/01/28 05:34:49;;;;;;;0.50;0.50;;;;;;;5.15;100.00;94607.03;5091293;28;20872;-59
2023/01/28 05:37:17;;;;;;;0.93;0.93;;;;;;;5.07;100.00;94608.31;5091801;28;20423;-59
2023/01/28 05:39:45;;;;;;;0.67;0.67;;;;;;;5.13;100.00;94611.75;5090908;28;20467;-59
2023/01/28 05:42:14;;;;;;;0.90;0.83;;;;;;;5.17;100.00;94604.94;5090741;28;20451;-59
2023/01/28 05:44:44;;;;;;;1.57;1.47;;;;;;;5.32;100.00;94623.44;5091254;28;20424;-59
2023/01/28 05:47:12;;;;;;;0.50;0.50;;;;;;;5.29;100.00;94618.69;5091697;28;20501;-59
2023/01/28 05:49:41;;;;;;;1.60;1.60;;;;;;;5.33;100.00;94621.59;5091350;28;20451;-59
2023/01/28 05:52:09;;;;;;;1.03;0.53;;;;;;;5.21;100.00;94626.25;5091026;28;20978;-59
2023/01/28 05:54:37;;;;;;;0.60;0.60;;;;;;;5.22;100.00;94627.81;5091491;28;20463;-59
2023/01/28 05:57:06;;;;;;;0.30;0.30;;;;;;;5.18;100.00;94630.19;5090941;28;20871;-58
2023/01/28 05:59:34;;;;;;;0.30;0.30;;;;;;;5.19;100.00;94634.38;5091100;28;20424;-58
2023/01/28 06:02:04;;;;;;;0.57;0.57;;;;;;;5.20;100.00;94635.19;5090407;28;20434;-58
2023/01/28 06:04:32;;;;;;;0.40;0.30;;;;;;;5.10;100.00;94635.91;5090586;28;20432;-58
2023/01/28 06:07:00;;;;;;;0.60;0.60;;;;;;;5.17;100.00;94635.66;5091626;28;20959;-58
2023/01/28 06:09:29;;;;;;;0.50;0.50;;;;;;;5.14;100.00;94648.28;5094760;28;20469;-58
2023/01/28 06:11:57;;;;;;;0.63;0.60;;;;;;;5.24;100.00;94652.81;5094749;28;20440;-59
2023/01/28 06:14:26;;;;;;;0.40;0.30;;;;;;;5.32;100.00;94664.69;5095037;28;20460;-59
2023/01/28 06:16:54;;;;;;;1.27;1.20;;;;;;;5.11;100.00;94635.63;5094836;28;20497;-59
2023/01/28 06:19:24;;;;;;;1.17;1.17;;;;;;;5.31;100.00;94648.16;5095102;28;20435;-58
2023/01/28 06:21:52;;;;;;;0.50;0.50;;;;;;;5.50;100.00;94666.91;5094891;28;20428;-58
2023/01/28 06:24:20;;;;;;;0.40;0.40;;;;;;;5.37;100.00;94654.19;5093769;28;20465;-57
2023/01/28 06:26:49;;;;;;;0.30;0.20;;;;;;;5.11;100.00;94640.88;5094024;28;20413;-59
2023/01/28 06:29:17;;;;;;;1.00;0.70;;;;;;;4.85;100.00;94673.25;5094949;28;20462;-57
2023/01/28 06:31:45;;;;;;;0.73;0.73;;;;;;;4.71;100.00;94673.88;5094830;28;20802;-60
2023/01/28 06:34:14;;;;;;;0.50;0.50;;;;;;;4.82;100.00;94678.19;5094546;28;20950;-59
2023/01/28 06:36:44;;;;;;;0.80;0.80;;;;;;;4.87;100.00;94679.03;5094538;28;20492;-59
2023/01/28 06:39:12;;;;;;;0.50;0.50;;;;;;;4.97;100.00;94680.94;5093994;28;20486;-59
2023/01/28 06:41:40;;;;;;;0.40;0.40;;;;;;;4.99;100.00;94690.16;5094478;28;20484;-59
2023/01/28 06:44:09;;;;;;;0.30;0.27;;;;;;;5.05;100.00;94691.81;5094016;28;20920;-59
2023/01/28 06:46:37;;;;;;;0.60;0.60;;;;;;;4.87;100.00;94691.38;5094209;28;20463;-59
2023/01/28 06:49:05;;;;;;;2.30;0.60;;;;;;;4.46;100.00;94688.34;5094192;28;20488;-60
2023/01/28 06:51:34;;;;;;;1.17;0.97;;;;;;;4.41;100.00;94690.91;5094499;28;20431;-60
2023/01/28 06:54:03;;;;;;;0.90;0.77;;;;;;;4.77;100.00;94707.81;5094636;28;20785;-60
2023/01/28 06:56:32;;;;;;;0.60;0.47;;;;;;;4.88;100.00;94693.72;5094060;28;20507;-60
2023/01/28 06:59:00;;;;;;;2.50;1.40;;;;;;;4.79;100.00;94710.19;5093923;28;20526;-60
2023/01/28 07:01:28;;;;;;;1.13;0.90;;;;;;;4.59;100.00;94708.16;5093383;28;20508;-59
2023/01/28 07:03:57;;;;;;;0.93;0.93;;;;;;;4.47;100.00;94718.00;5093825;28;20432;-54
2023/01/28 07:06:25;;;;;;;0.87;0.87;;;;;;;4.79;100.00;94718.84;5093769;28;20452;-54
2023/01/28 07:08:53;;;;;;;1.03;1.03;;;;;;;4.49;100.00;94719.34;5093731;28;20433;-54
2023/01/28 07:11:23;;;;;;;3.17;0.73;;;;;;;4.67;100.00;94728.72;5093455;28;20558;-54
2023/01/28 07:13:51;;;;;;;0.93;0.87;;;;;;;4.66;100.00;94719.25;5093529;28;20958;-53
2023/01/28 07:16:20;;;;;;;0.50;0.50;;;;;;;4.83;99.26;94727.03;5093377;28;20568;-53
2023/01/28 07:18:48;;;;;;;1.13;1.03;;;;;;;4.97;100.00;94726.41;5092517;28;20427;-54
2023/01/28 07:21:16;;;;;;;0.50;0.50;;;;;;;5.16;100.00;94739.16;5092364;28;20428;-54
2023/01/28 07:23:45;;;;;;;1.97;1.30;;;;;;;5.23;100.00;94742.38;5092046;28;20413;-54
2023/01/28 07:26:14;;;;;;;1.50;1.40;;;;;;;5.47;98.23;94749.69;5093738;28;20813;-54
2023/01/28 07:28:44;;;;;;;0.80;0.80;;;;;;;5.53;96.39;94732.91;5093130;28;20455;-54
2023/01/28 07:31:12;;;;;;;0.60;0.60;;;;;;;6.01;100.00;94752.19;5092767;28;20428;-53
2023/01/28 07:33:40;;;;;;;0.47;0.40;;;;;;;6.14;100.00;94749.91;5092637;28;20475;-54
2023/01/28 07:36:09;;;;;;;1.40;1.30;;;;;;;5.67;92.82;94756.91;5091406;28;20658;-54
2023/01/28 07:38:37;;;;;;;1.20;1.00;;;;;;;5.17;97.16;94757.28;5092860;28;20439;-53
2023/01/28 07:41:05;;;;;;;0.70;0.70;;;;;;;5.39;99.02;94739.63;5092479;28;20424;-52
2023/01/28 07:43:34;;;;;;;2.53;1.00;;;;;;;5.30;98.12;94756.91;5092038;28;20471;-54
2023/01/28 07:46:04;;;;;;;0.90;0.90;;;;;;;5.12;97.31;94760.69;5092696;28;20938;-54
2023/01/28 07:48:32;;;;;;;0.40;0.40;;;;;;;5.27;100.00;94760.00;5092021;28;20429;-57
2023/01/28 07:51:00;;;;;;;0.50;0.50;;;;;;;5.69;100.00;94766.13;5093135;28;20431;-57
2023/01/28 07:53:28;;;;;;;0.70;0.70;;;;;;;5.90;98.29;94735.53;5092614;28;20479;-55
2023/01/28 07:56:03;;;;;;;0.70;0.70;;;;;;;5.98;94.39;94758.75;5093069;28;20522;-56
2023/01/28 07:58:33;;;;;;;7.23;1.70;;;;;;;5.91;95.19;94770.53;5093084;28;20482;-56
2023/01/28 08:01:03;;;;;;;0.87;0.87;;;;;;;5.45;91.25;94769.38;5093174;28;20437;-56
2023/01/28 08:03:31;;;;;;;0.57;0.40;;;;;;;5.84;93.77;94775.19;5092658;28;20920;-56
2023/01/28 08:05:59;;;;;;;2.67;0.50;;;;;;;6.06;96.32;94779.31;5092742;28;20993;-56
2023/01/28 08:08:28;;;;;;;2.97;2.77;;;;;;;5.78;94.11;94777.78;5092862;28;20807;-56
2023/01/28 08:10:56;;;;;;;2.60;0.87;;;;;;;5.20;91.70;94780.44;5092868;28;20426;-56
2023/01/28 08:13:24;;;;;;;0.87;0.87;;;;;;;5.60;92.72;94783.44;5092089;28;20995;-56
2023/01/28 08:15:55;;;;;;;0.70;0.70;;;;;;;5.99;92.21;94793.75;5091925;28;20482;-56
2023/01/28 08:18:25;;;;;;;1.73;1.63;;;;;;;5.68;92.21;94795.31;5092595;28;20420;-55
2023/01/28 08:20:55;;;;;;;0.67;0.67;;;;;;;5.53;91.41;94785.47;5092398;28;20471;-55
2023/01/28 08:23:25;;;;;;;1.50;1.50;;;;;;;5.52;93.68;94797.03;5092327;28;20421;-56
2023/01/28 08:25:54;;;;;;;0.63;0.60;;;;;;;5.18;92.48;94723.94;5092354;28;20433;-56
2023/01/28 08:28:22;;;;;;;0.90;0.63;;;;;;;5.82;92.16;94796.47;5092764;28;20474;-56
2023/01/28 08:30:51;;;;;;;0.33;0.23;;;;;;;5.96;92.87;94802.13;5091657;28;20438;-56
2023/01/28 08:33:20;;;;;;;2.63;0.60;;;;;;;6.06;92.47;94795.09;5092002;28;20440;-55
2023/01/28 08:35:50;;;;;;;0.60;0.60;;;;;;;6.12;90.09;94806.47;5091716;28;20547;-55
2023/01/28 08:38:19;;;;;;;0.43;0.43;;;;;;;6.23;88.19;94806.25;5092029;28;20494;-55
2023/01/28 08:40:49;;;;;;;0.60;0.60;;;;;;;6.36;88.84;94803.19;5092148;28;20544;-55
2023/01/28 08:43:17;;;;;;;0.80;0.73;;;;;;;6.78;87.79;94804.97;5092211;28;20429;-55
2023/01/28 08:45:46;;;;;;;0.50;0.50;;;;;;;6.49;87.25;94814.28;5091901;28;20427;-55
2023/01/28 08:48:16;;;;;;;0.30;0.20;;;;;;;6.16;89.05;94797.78;5091801;28;20527;-56
2023/01/28 08:50:45;;;;;;;0.67;0.67;;;;;;;6.47;87.12;94814.56;5091844;28;20421;-55
2023/01/28 08:53:16;;;;;;;2.63;0.63;;;;;;;6.26;86.56;94758.38;5091872;28;20425;-55
2023/01/28 08:56:02;;;;;;;0.70;0.67;;;;;;;6.55;87.56;94819.34;5091933;28;20881;-56
2023/01/28 08:58:31;;;;;;;0.67;0.67;;;;;;;6.19;86.63;94820.19;5091813;28;20468;-55
2023/01/28 09:01:03;;;;;;;0.40;0.30;;;;;;;6.48;88.20;94821.38;5092120;28;20444;-55
2023/01/28 09:03:31;;;;;;;0.93;0.93;;;;;;;6.53;87.29;94818.00;5091553;28;20937;-56
2023/01/28 09:06:01;;;;;;;0.40;0.40;;;;;;;6.80;86.74;94816.81;5091952;28;20457;-56
2023/01/28 09:08:32;;;;;;;0.40;0.30;;;;;;;6.51;87.92;94831.41;5091977;28;20421;-55
2023/01/28 09:11:01;;;;;;;0.40;0.30;;;;;;;6.61;87.44;94826.19;5092111;28;20424;-56
2023/01/28 09:13:30;;;;;;;0.40;0.40;;;;;;;6.16;85.66;94775.94;5091565;28;20433;-56
2023/01/28 09:15:58;;;;;;;1.37;1.00;;;;;;;6.64;86.00;94830.16;5091663;28;20505;-57
2023/01/28 09:18:26;;;;;;;2.40;2.13;;;;;;;6.68;84.27;94829.38;5091197;28;20504;-56
2023/01/28 09:20:55;;;;;;;0.50;0.47;;;;;;;6.62;84.59;94821.72;5091511;28;20456;-55
2023/01/28 09:23:23;;;;;;;0.83;0.40;;;;;;;6.87;85.66;94824.47;5090838;28;20430;-55
2023/01/28 09:26:00;;;;;;;0.90;0.90;;;;;;;6.88;83.88;94821.56;5091457;28;20824;-55
2023/01/28 09:28:29;;;;;;;0.40;0.27;;;;;;;6.59;84.53;94823.03;5091574;28;20428;-55
2023/01/28 09:31:02;;;;;;;0.40;0.30;;;;;;;5.48;84.37;94675.06;5091559;28;20524;-55
2023/01/28 09:33:31;;;;;;;0.50;0.47;;;;;;;6.00;82.97;94747.97;5091699;28;20425;-56
2023/01/28 09:36:00;;;;;;;0.37;0.30;;;;;;;6.14;85.57;94731.50;5091363;28;20552;-56
2023/01/28 09:38:29;;;;;;;1.20;1.20;;;;;;;6.66;83.81;94797.25;5091600;28;20477;-56
2023/01/28 09:41:01;;;;;;;0.63;0.60;;;;;;;7.04;81.74;94823.22;5091629;28;20425;-56
2023/01/28 09:43:47;;;;;;;0.40;0.40;;;;;;;6.54;82.02;94816.94;5094438;28;20795;-56
2023/01/28 09:46:17;;;;;;;0.60;0.50;;;;;;;6.37;81.50;94803.97;5095403;28;20432;-56
2023/01/28 09:48:51;;;;;;;1.57;1.53;;;;;;;6.43;82.45;94816.09;5094820;28;20517;-56
2023/01/28 09:51:32;;;;;;;0.63;0.40;;;;;;;6.16;81.82;94821.47;5093778;28;20457;-56
2023/01/28 09:54:06;;;;;;;0.40;0.40;;;;;;;5.48;83.59;94753.91;5094497;28;20443;-57
2023/01/28 09:56:41;;;;;;;0.43;0.40;;;;;;;6.53;85.28;94815.38;5094374;28;20437;-57
2023/01/28 09:59:18;;;;;;;1.07;1.07;;;;;;;6.70;82.18;94818.63;5094898;28;20456;-57
2023/01/28 10:01:54;;;;;;;0.73;0.50;;;;;;;7.38;83.41;94807.75;5095131;28;20441;-57
2023/01/28 10:04:40;;;;;;;0.93;0.63;;;;;;;7.45;82.40;94805.66;5094746;28;20432;-57
2023/01/28 10:07:21;;;;;;;0.60;0.37;;;;;;;7.62;82.43;94808.03;5094682;28;20443;-57
2023/01/28 10:09:54;;;;;;;0.67;0.67;;;;;;;7.40;80.57;94789.84;5094753;28;20446;-57
2023/01/28 10:12:41;;;;;;;0.30;0.20;;;;;;;7.27;81.77;94811.41;5094873;28;20425;-57
2023/01/28 10:15:27;;;;;;;0.50;0.47;;;;;;;7.38;82.19;94809.59;5094957;28;20428;-57
2023/01/28 10:18:01;;;;;;;0.63;0.63;;;;;;;7.36;79.85;94780.84;5094418;28;20518;-57
2023/01/28 10:20:46;;;;;;;0.43;0.43;;;;;;;7.49;79.00;94800.63;5094589;28;20421;-57
2023/01/28 10:23:22;;;;;;;0.40;0.30;;;;;;;7.46;79.97;94796.69;5094421;28;20474;-57
2023/01/28 10:25:50;;;;;;;0.40;0.30;;;;;;;7.65;78.63;94800.41;5094685;28;20516;-57
2023/01/28 10:28:24;;;;;;;1.47;1.40;;;;;;;8.32;78.78;94793.25;5094198;28;20443;-57
2023/01/28 10:30:52;;;;;;;0.40;0.30;;;;;;;8.08;76.76;94804.34;5094516;28;20432;-57
2023/01/28 10:33:28;;;;;;;0.40;0.27;;;;;;;7.96;75.66;94800.41;5093914;28;20432;-57
2023/01/28 10:35:57;;;;;;;0.67;0.67;;;;;;;7.82;75.12;94809.91;5093811;28;20477;-57
2023/01/28 10:38:27;;;;;;;0.40;0.30;;;;;;;6.93;76.68;94752.34;5094059;28;20833;-57
2023/01/28 10:41:00;;;;;;;2.00;1.03;;;;;;;7.46;76.35;94804.59;5094089;28;20473;-57
2023/01/28 10:43:33;;;;;;;0.70;0.70;;;;;;;7.62;76.56;94732.34;5094243;28;20424;-57
2023/01/28 10:46:07;;;;;;;0.80;0.80;;;;;;;8.09;77.54;94799.88;5094022;28;20426;-57
2023/01/28 10:48:41;;;;;;;0.93;0.40;;;;;;;8.10;78.08;94801.44;5094109;28;20415;-58
2023/01/28 10:51:09;;;;;;;0.50;0.50;;;;;;;7.82;75.76;94809.91;5094012;28;20890;-55
2023/01/28 10:53:43;;;;;;;0.40;0.30;;;;;;;8.03;76.77;94804.34;5092644;28;20432;-56
2023/01/28 10:56:14;;;;;;;1.83;1.07;;;;;;;7.90;76.33;94801.44;5094036;28;20811;-57
2023/01/28 10:58:59;;;;;;;0.40;0.30;;;;;;;7.88;77.60;94812.28;5093804;28;20476;-57
2023/01/28 11:01:45;;;;;;;2.27;2.07;;;;;;;8.37;77.21;94754.44;5094089;28;20496;-57
2023/01/28 11:04:24;;;;;;;0.53;0.53;;;;;;;7.78;75.56;94758.72;5093614;28;20428;-57
2023/01/28 11:06:55;;;;;;;0.80;0.80;;;;;;;8.21;78.82;94792.44;5093446;28;20431;-57
2023/01/28 11:09:25;;;;;;;1.20;1.10;;;;;;;7.69;76.76;94766.38;5093654;28;20917;-57
2023/01/28 11:11:54;;;;;;;0.50;0.50;;;;;;;7.94;76.81;94782.22;5093613;28;20434;-58
2023/01/28 11:14:27;;;;;;;0.60;0.60;;;;;;;8.21;73.91;94803.81;5093491;28;20470;-57
2023/01/28 11:16:58;;;;;;;0.60;0.50;;;;;;;8.36;72.88;94795.09;5093148;28;20530;-56
2023/01/28 11:19:33;;;;;;;0.60;0.60;;;;;;;7.19;71.74;94706.50;5093198;28;20484;-56
2023/01/28 11:22:03;;;;;;;0.40;0.37;;;;;;;8.36;72.49;94783.75;5093308;28;20435;-58
2023/01/28 11:24:34;;;;;;;1.87;1.00;;;;;;;7.81;72.42;94793.28;5093415;28;20441;-57
2023/01/28 11:27:16;;;;;;;0.50;0.50;;;;;;;8.26;73.24;94801.19;5093168;28;20967;-57
2023/01/28 11:29:46;;;;;;;0.80;0.40;;;;;;;8.32;71.07;94799.34;5092904;28;20443;-57
2023/01/28 11:32:19;;;;;;;0.93;0.93;;;;;;;8.39;71.37;94793.78;5093247;28;20433;-57
2023/01/28 11:34:53;;;;;;;0.40;0.30;;;;;;;8.21;71.32;94792.44;5092648;28;20434;-57
2023/01/28 11:37:23;;;;;;;1.67;1.67;;;;;;;7.85;70.92;94732.84;5092958;28;20977;-57
2023/01/28 11:40:15;;;;;;;0.30;0.30;;;;;;;7.84;73.27;94721.53;5092978;28;20518;-57
2023/01/28 11:42:50;;;;;;;0.40;0.30;;;;;;;8.40;73.78;94785.56;5092879;28;20421;-56
2023/01/28 11:45:28;;;;;;;1.13;0.40;;;;;;;8.39;74.34;94799.06;5092816;28;20464;-56
2023/01/28 11:48:11;;;;;;;0.30;0.30;;;;;;;9.02;70.93;94792.22;5093098;28;20797;-56
2023/01/28 11:50:48;;;;;;;1.10;1.10;;;;;;;9.37;69.72;94792.03;5093098;28;20508;-56
2023/01/28 11:53:42;;;;;;;0.40;0.40;;;;;;;9.27;71.25;94737.34;5092747;28;20792;-57
2023/01/28 11:56:36;;;;;;;0.63;0.63;;;;;;;9.27;70.06;94789.44;5090593;28;20464;-56
2023/01/28 11:59:19;;;;;;;1.07;0.57;;;;;;;8.99;70.07;94790.13;5092744;28;20462;-57
2023/01/28 12:02:00;;;;;;;0.40;0.30;;;;;;;9.39;69.00;94781.97;5092923;28;20447;-57
2023/01/28 12:04:49;;;;;;;0.70;0.63;;;;;;;9.63;68.30;94790.81;5092280;28;20934;-57
2023/01/28 12:07:29;;;;;;;0.40;0.33;;;;;;;8.98;69.85;94776.09;5092353;28;20427;-57
2023/01/28 12:10:02;;;;;;;0.40;0.40;;;;;;;9.39;71.28;94776.66;5092469;28;20878;-57
2023/01/28 12:13:06;;;;;;;0.97;0.70;;;;;;;9.19;70.16;94796.09;5092092;28;20432;-57
2023/01/28 12:16:00;;;;;;;0.40;0.40;;;;;;;9.63;67.50;94797.94;5082439;28;20780;-57
2023/01/28 12:18:52;;;;;;;0.50;0.40;;;;;;;9.78;65.42;94793.34;5091629;28;20504;-58
2023/01/28 12:21:33;;;;;;;0.40;0.33;;;;;;;9.40;66.59;94804.72;5091894;28;20914;-58
2023/01/28 12:24:20;;;;;;;0.30;0.30;;;;;;;9.23;66.73;94799.00;5091506;28;20905;-58
2023/01/28 12:26:52;;;;;;;0.50;0.40;;;;;;;9.38;66.49;94796.25;5091709;28;20949;-59